sensor_id;sensor_type;location;lat;lon;timestamp;P1;durP1;ratioP1;P2;durP2;ratioP2
58516;SDS011;44308;50.810;0.284;2024-01-11T00:00:35;0.30;;;0.30;;
58516;SDS011;44308;50.810;0.284;2024-01-11T00:03:01;0.28;;;0.28;;
58516;SDS011;44308;50.810;0.284;2024-01-11T00:05:27;0.22;;;0.22;;
58516;SDS011;44308;50.810;0.284;2024-01-11T00:07:53;0.30;;;0.30;;
58516;SDS011;44308;50.810;0.284;2024-01-11T00:10:19;0.30;;;0.30;;
58516;SDS011;44308;50.810;0.284;2024-01-11T00:12:46;0.30;;;0.30;;
58516;SDS011;44308;50.810;0.284;2024-01-11T00:15:12;0.30;;;0.30;;
58516;SDS011;44308;50.810;0.284;2024-01-11T00:17:38;0.30;;;0.30;;
58516;SDS011;44308;50.810;0.284;2024-01-11T00:20:05;0.30;;;0.30;;
58516;SDS011;44308;50.810;0.284;2024-01-11T00:22:31;0.40;;;0.40;;
58516;SDS011;44308;50.810;0.284;2024-01-11T00:24:57;0.28;;;0.28;;
58516;SDS011;44308;50.810;0.284;2024-01-11T00:27:23;0.30;;;0.30;;
58516;SDS011;44308;50.810;0.284;2024-01-11T00:29:50;0.28;;;0.28;;
58516;SDS011;44308;50.810;0.284;2024-01-11T00:32:16;0.20;;;0.20;;
58516;SDS011;44308;50.810;0.284;2024-01-11T00:34:42;0.32;;;0.32;;
58516;SDS011;44308;50.810;0.284;2024-01-11T00:37:08;0.20;;;0.20;;
58516;SDS011;44308;50.810;0.284;2024-01-11T00:39:34;0.30;;;0.30;;
58516;SDS011;44308;50.810;0.284;2024-01-11T00:42:00;0.32;;;0.32;;
58516;SDS011;44308;50.810;0.284;2024-01-11T00:44:27;0.20;;;0.20;;
58516;SDS011;44308;50.810;0.284;2024-01-11T00:46:55;0.30;;;0.30;;
58516;SDS011;44308;50.810;0.284;2024-01-11T00:49:22;0.30;;;0.30;;
58516;SDS011;44308;50.810;0.284;2024-01-11T00:51:48;0.30;;;0.30;;
58516;SDS011;44308;50.810;0.284;2024-01-11T00:54:14;0.30;;;0.30;;
58516;SDS011;44308;50.810;0.284;2024-01-11T00:56:40;0.30;;;0.30;;
58516;SDS011;44308;50.810;0.284;2024-01-11T00:59:06;0.30;;;0.30;;
58516;SDS011;44308;50.810;0.284;2024-01-11T01:01:32;0.30;;;0.30;;
58516;SDS011;44308;50.810;0.284;2024-01-11T01:03:58;0.30;;;0.30;;
58516;SDS011;44308;50.810;0.284;2024-01-11T01:06:24;0.20;;;0.20;;
58516;SDS011;44308;50.810;0.284;2024-01-11T01:08:50;0.30;;;0.30;;
58516;SDS011;44308;50.810;0.284;2024-01-11T01:11:17;0.20;;;0.20;;
58516;SDS011;44308;50.810;0.284;2024-01-11T01:13:43;0.30;;;0.30;;
58516;SDS011;44308;50.810;0.284;2024-01-11T01:16:09;0.30;;;0.30;;
58516;SDS011;44308;50.810;0.284;2024-01-11T01:18:35;0.40;;;0.40;;
58516;SDS011;44308;50.810;0.284;2024-01-11T01:21:01;0.30;;;0.30;;
58516;SDS011;44308;50.810;0.284;2024-01-11T01:23:27;0.20;;;0.20;;
58516;SDS011;44308;50.810;0.284;2024-01-11T01:25:53;0.30;;;0.30;;
58516;SDS011;44308;50.810;0.284;2024-01-11T01:28:19;0.20;;;0.20;;
58516;SDS011;44308;50.810;0.284;2024-01-11T01:30:45;0.30;;;0.30;;
58516;SDS011;44308;50.810;0.284;2024-01-11T01:33:12;0.20;;;0.20;;
58516;SDS011;44308;50.810;0.284;2024-01-11T01:35:38;0.30;;;0.30;;
58516;SDS011;44308;50.810;0.284;2024-01-11T01:38:04;0.40;;;0.40;;
58516;SDS011;44308;50.810;0.284;2024-01-11T01:40:30;0.30;;;0.30;;
58516;SDS011;44308;50.810;0.284;2024-01-11T01:42:59;0.30;;;0.30;;
58516;SDS011;44308;50.810;0.284;2024-01-11T01:45:25;0.30;;;0.30;;
58516;SDS011;44308;50.810;0.284;2024-01-11T01:47:52;0.30;;;0.30;;
58516;SDS011;44308;50.810;0.284;2024-01-11T01:50:19;0.30;;;0.30;;
58516;SDS011;44308;50.810;0.284;2024-01-11T01:52:46;0.32;;;0.32;;
58516;SDS011;44308;50.810;0.284;2024-01-11T01:55:12;0.30;;;0.30;;
58516;SDS011;44308;50.810;0.284;2024-01-11T01:57:40;0.38;;;0.38;;
58516;SDS011;44308;50.810;0.284;2024-01-11T02:00:12;0.30;;;0.30;;
58516;SDS011;44308;50.810;0.284;2024-01-11T02:02:39;0.40;;;0.40;;
58516;SDS011;44308;50.810;0.284;2024-01-11T02:05:06;0.30;;;0.30;;
58516;SDS011;44308;50.810;0.284;2024-01-11T02:07:32;0.30;;;0.30;;
58516;SDS011;44308;50.810;0.284;2024-01-11T02:09:58;0.40;;;0.40;;
58516;SDS011;44308;50.810;0.284;2024-01-11T02:12:27;0.22;;;0.22;;
58516;SDS011;44308;50.810;0.284;2024-01-11T02:14:53;0.30;;;0.30;;
58516;SDS011;44308;50.810;0.284;2024-01-11T02:17:20;0.40;;;0.40;;
58516;SDS011;44308;50.810;0.284;2024-01-11T02:19:46;0.38;;;0.38;;
58516;SDS011;44308;50.810;0.284;2024-01-11T02:22:15;0.30;;;0.30;;
58516;SDS011;44308;50.810;0.284;2024-01-11T02:24:43;0.40;;;0.40;;
58516;SDS011;44308;50.810;0.284;2024-01-11T02:27:09;0.45;;;0.45;;
58516;SDS011;44308;50.810;0.284;2024-01-11T02:29:35;0.20;;;0.20;;
58516;SDS011;44308;50.810;0.284;2024-01-11T02:32:02;0.35;;;0.35;;
58516;SDS011;44308;50.810;0.284;2024-01-11T02:34:29;0.40;;;0.40;;
58516;SDS011;44308;50.810;0.284;2024-01-11T02:36:56;0.30;;;0.30;;
58516;SDS011;44308;50.810;0.284;2024-01-11T02:39:22;0.40;;;0.40;;
58516;SDS011;44308;50.810;0.284;2024-01-11T02:41:50;0.30;;;0.30;;
58516;SDS011;44308;50.810;0.284;2024-01-11T02:44:19;0.20;;;0.20;;
58516;SDS011;44308;50.810;0.284;2024-01-11T02:46:45;0.40;;;0.40;;
58516;SDS011;44308;50.810;0.284;2024-01-11T02:49:11;0.30;;;0.30;;
58516;SDS011;44308;50.810;0.284;2024-01-11T02:51:37;0.40;;;0.40;;
58516;SDS011;44308;50.810;0.284;2024-01-11T02:54:03;0.30;;;0.30;;
58516;SDS011;44308;50.810;0.284;2024-01-11T02:56:32;0.30;;;0.30;;
58516;SDS011;44308;50.810;0.284;2024-01-11T02:58:58;0.40;;;0.40;;
58516;SDS011;44308;50.810;0.284;2024-01-11T03:01:24;0.40;;;0.40;;
58516;SDS011;44308;50.810;0.284;2024-01-11T03:03:50;0.30;;;0.30;;
58516;SDS011;44308;50.810;0.284;2024-01-11T03:06:17;0.35;;;0.35;;
58516;SDS011;44308;50.810;0.284;2024-01-11T03:08:46;0.20;;;0.20;;
58516;SDS011;44308;50.810;0.284;2024-01-11T03:11:13;0.30;;;0.30;;
58516;SDS011;44308;50.810;0.284;2024-01-11T03:13:39;0.20;;;0.20;;
58516;SDS011;44308;50.810;0.284;2024-01-11T03:16:05;0.30;;;0.30;;
58516;SDS011;44308;50.810;0.284;2024-01-11T03:18:32;0.30;;;0.30;;
58516;SDS011;44308;50.810;0.284;2024-01-11T03:20:58;0.40;;;0.40;;
58516;SDS011;44308;50.810;0.284;2024-01-11T03:23:24;0.35;;;0.35;;
58516;SDS011;44308;50.810;0.284;2024-01-11T03:25:50;0.30;;;0.30;;
58516;SDS011;44308;50.810;0.284;2024-01-11T03:28:16;0.30;;;0.30;;
58516;SDS011;44308;50.810;0.284;2024-01-11T03:30:42;0.30;;;0.30;;
58516;SDS011;44308;50.810;0.284;2024-01-11T03:33:08;0.38;;;0.38;;
58516;SDS011;44308;50.810;0.284;2024-01-11T03:35:35;0.30;;;0.30;;
58516;SDS011;44308;50.810;0.284;2024-01-11T03:38:03;0.22;;;0.22;;
58516;SDS011;44308;50.810;0.284;2024-01-11T03:40:30;0.30;;;0.30;;
58516;SDS011;44308;50.810;0.284;2024-01-11T03:42:56;0.30;;;0.30;;
58516;SDS011;44308;50.810;0.284;2024-01-11T03:45:22;0.30;;;0.30;;
58516;SDS011;44308;50.810;0.284;2024-01-11T03:47:48;0.30;;;0.30;;
58516;SDS011;44308;50.810;0.284;2024-01-11T03:50:17;0.40;;;0.40;;
58516;SDS011;44308;50.810;0.284;2024-01-11T03:52:44;0.30;;;0.30;;
58516;SDS011;44308;50.810;0.284;2024-01-11T03:55:11;0.30;;;0.30;;
58516;SDS011;44308;50.810;0.284;2024-01-11T03:57:37;0.30;;;0.30;;
58516;SDS011;44308;50.810;0.284;2024-01-11T04:00:03;0.30;;;0.30;;
58516;SDS011;44308;50.810;0.284;2024-01-11T04:02:31;0.30;;;0.30;;
58516;SDS011;44308;50.810;0.284;2024-01-11T04:04:57;0.20;;;0.20;;
58516;SDS011;44308;50.810;0.284;2024-01-11T04:07:23;0.30;;;0.30;;
58516;SDS011;44308;50.810;0.284;2024-01-11T04:09:49;0.30;;;0.30;;
58516;SDS011;44308;50.810;0.284;2024-01-11T04:12:15;0.30;;;0.30;;
58516;SDS011;44308;50.810;0.284;2024-01-11T04:14:41;0.22;;;0.22;;
58516;SDS011;44308;50.810;0.284;2024-01-11T04:17:07;0.20;;;0.20;;
58516;SDS011;44308;50.810;0.284;2024-01-11T04:19:33;0.30;;;0.30;;
58516;SDS011;44308;50.810;0.284;2024-01-11T04:21:59;0.30;;;0.30;;
58516;SDS011;44308;50.810;0.284;2024-01-11T04:24:25;0.40;;;0.40;;
58516;SDS011;44308;50.810;0.284;2024-01-11T04:26:51;0.40;;;0.40;;
58516;SDS011;44308;50.810;0.284;2024-01-11T04:29:18;0.30;;;0.30;;
58516;SDS011;44308;50.810;0.284;2024-01-11T04:31:44;0.30;;;0.30;;
58516;SDS011;44308;50.810;0.284;2024-01-11T04:34:10;0.20;;;0.20;;
58516;SDS011;44308;50.810;0.284;2024-01-11T04:36:39;0.35;;;0.35;;
58516;SDS011;44308;50.810;0.284;2024-01-11T04:39:05;0.40;;;0.40;;
58516;SDS011;44308;50.810;0.284;2024-01-11T04:41:33;0.22;;;0.22;;
58516;SDS011;44308;50.810;0.284;2024-01-11T04:43:59;0.30;;;0.30;;
58516;SDS011;44308;50.810;0.284;2024-01-11T04:46:25;0.40;;;0.40;;
58516;SDS011;44308;50.810;0.284;2024-01-11T04:48:51;0.40;;;0.40;;
58516;SDS011;44308;50.810;0.284;2024-01-11T04:51:19;0.30;;;0.30;;
58516;SDS011;44308;50.810;0.284;2024-01-11T04:53:50;0.30;;;0.30;;
58516;SDS011;44308;50.810;0.284;2024-01-11T04:56:17;0.20;;;0.20;;
58516;SDS011;44308;50.810;0.284;2024-01-11T04:58:43;0.40;;;0.40;;
58516;SDS011;44308;50.810;0.284;2024-01-11T05:01:13;0.25;;;0.25;;
58516;SDS011;44308;50.810;0.284;2024-01-11T05:03:39;0.30;;;0.30;;
58516;SDS011;44308;50.810;0.284;2024-01-11T05:06:05;0.30;;;0.30;;
58516;SDS011;44308;50.810;0.284;2024-01-11T05:08:32;0.32;;;0.32;;
58516;SDS011;44308;50.810;0.284;2024-01-11T05:10:58;0.30;;;0.30;;
58516;SDS011;44308;50.810;0.284;2024-01-11T05:13:24;0.30;;;0.30;;
58516;SDS011;44308;50.810;0.284;2024-01-11T05:15:50;0.28;;;0.28;;
58516;SDS011;44308;50.810;0.284;2024-01-11T05:18:16;0.30;;;0.30;;
58516;SDS011;44308;50.810;0.284;2024-01-11T05:20:42;0.20;;;0.20;;
58516;SDS011;44308;50.810;0.284;2024-01-11T05:23:08;0.40;;;0.40;;
58516;SDS011;44308;50.810;0.284;2024-01-11T05:25:34;0.22;;;0.22;;
58516;SDS011;44308;50.810;0.284;2024-01-11T05:28:01;0.30;;;0.30;;
58516;SDS011;44308;50.810;0.284;2024-01-11T05:30:27;0.30;;;0.30;;
58516;SDS011;44308;50.810;0.284;2024-01-11T05:32:53;0.20;;;0.20;;
58516;SDS011;44308;50.810;0.284;2024-01-11T05:35:20;0.20;;;0.20;;
58516;SDS011;44308;50.810;0.284;2024-01-11T05:37:47;0.30;;;0.30;;
58516;SDS011;44308;50.810;0.284;2024-01-11T05:40:16;0.30;;;0.30;;
58516;SDS011;44308;50.810;0.284;2024-01-11T05:42:42;0.20;;;0.20;;
58516;SDS011;44308;50.810;0.284;2024-01-11T05:45:08;0.30;;;0.30;;
58516;SDS011;44308;50.810;0.284;2024-01-11T05:47:34;0.30;;;0.30;;
58516;SDS011;44308;50.810;0.284;2024-01-11T05:50:00;0.40;;;0.40;;
58516;SDS011;44308;50.810;0.284;2024-01-11T05:52:27;0.22;;;0.22;;
58516;SDS011;44308;50.810;0.284;2024-01-11T05:54:56;0.30;;;0.30;;
58516;SDS011;44308;50.810;0.284;2024-01-11T05:57:22;0.40;;;0.40;;
58516;SDS011;44308;50.810;0.284;2024-01-11T05:59:48;0.30;;;0.30;;
58516;SDS011;44308;50.810;0.284;2024-01-11T06:02:14;0.20;;;0.20;;
58516;SDS011;44308;50.810;0.284;2024-01-11T06:04:40;0.30;;;0.30;;
58516;SDS011;44308;50.810;0.284;2024-01-11T06:07:06;0.38;;;0.38;;
58516;SDS011;44308;50.810;0.284;2024-01-11T06:09:32;0.30;;;0.30;;
58516;SDS011;44308;50.810;0.284;2024-01-11T06:11:58;0.40;;;0.40;;
58516;SDS011;44308;50.810;0.284;2024-01-11T06:14:24;0.30;;;0.30;;
58516;SDS011;44308;50.810;0.284;2024-01-11T06:16:50;0.30;;;0.30;;
58516;SDS011;44308;50.810;0.284;2024-01-11T06:19:16;0.30;;;0.30;;
58516;SDS011;44308;50.810;0.284;2024-01-11T06:21:42;0.38;;;0.38;;
58516;SDS011;44308;50.810;0.284;2024-01-11T06:24:08;0.40;;;0.40;;
58516;SDS011;44308;50.810;0.284;2024-01-11T06:26:35;0.30;;;0.30;;
58516;SDS011;44308;50.810;0.284;2024-01-11T06:29:01;0.30;;;0.30;;
58516;SDS011;44308;50.810;0.284;2024-01-11T06:31:27;0.20;;;0.20;;
58516;SDS011;44308;50.810;0.284;2024-01-11T06:33:53;0.40;;;0.40;;
58516;SDS011;44308;50.810;0.284;2024-01-11T06:36:19;0.30;;;0.30;;
58516;SDS011;44308;50.810;0.284;2024-01-11T06:38:46;0.30;;;0.30;;
58516;SDS011;44308;50.810;0.284;2024-01-11T06:41:12;0.20;;;0.20;;
58516;SDS011;44308;50.810;0.284;2024-01-11T06:43:38;0.30;;;0.30;;
58516;SDS011;44308;50.810;0.284;2024-01-11T06:46:04;0.30;;;0.30;;
58516;SDS011;44308;50.810;0.284;2024-01-11T06:48:31;0.30;;;0.30;;
58516;SDS011;44308;50.810;0.284;2024-01-11T06:50:57;0.40;;;0.40;;
58516;SDS011;44308;50.810;0.284;2024-01-11T06:53:23;0.25;;;0.25;;
58516;SDS011;44308;50.810;0.284;2024-01-11T06:55:49;0.40;;;0.40;;
58516;SDS011;44308;50.810;0.284;2024-01-11T06:58:17;0.20;;;0.20;;
58516;SDS011;44308;50.810;0.284;2024-01-11T07:00:43;0.20;;;0.20;;
58516;SDS011;44308;50.810;0.284;2024-01-11T07:03:09;0.25;;;0.25;;
58516;SDS011;44308;50.810;0.284;2024-01-11T07:05:36;0.30;;;0.30;;
58516;SDS011;44308;50.810;0.284;2024-01-11T07:08:02;0.30;;;0.30;;
58516;SDS011;44308;50.810;0.284;2024-01-11T07:10:29;0.30;;;0.30;;
58516;SDS011;44308;50.810;0.284;2024-01-11T07:12:55;0.30;;;0.30;;
58516;SDS011;44308;50.810;0.284;2024-01-11T07:15:21;0.30;;;0.30;;
58516;SDS011;44308;50.810;0.284;2024-01-11T07:17:48;0.30;;;0.30;;
58516;SDS011;44308;50.810;0.284;2024-01-11T07:20:15;0.35;;;0.35;;
58516;SDS011;44308;50.810;0.284;2024-01-11T07:22:42;0.20;;;0.20;;
58516;SDS011;44308;50.810;0.284;2024-01-11T07:25:08;0.25;;;0.25;;
58516;SDS011;44308;50.810;0.284;2024-01-11T07:27:34;0.25;;;0.25;;
58516;SDS011;44308;50.810;0.284;2024-01-11T07:30:01;0.40;;;0.40;;
58516;SDS011;44308;50.810;0.284;2024-01-11T07:32:28;0.40;;;0.40;;
58516;SDS011;44308;50.810;0.284;2024-01-11T07:34:54;0.30;;;0.30;;
58516;SDS011;44308;50.810;0.284;2024-01-11T07:37:20;0.30;;;0.30;;
58516;SDS011;44308;50.810;0.284;2024-01-11T07:39:46;0.35;;;0.35;;
58516;SDS011;44308;50.810;0.284;2024-01-11T07:42:13;0.32;;;0.32;;
58516;SDS011;44308;50.810;0.284;2024-01-11T07:44:41;0.25;;;0.25;;
58516;SDS011;44308;50.810;0.284;2024-01-11T07:47:07;0.20;;;0.20;;
58516;SDS011;44308;50.810;0.284;2024-01-11T07:49:33;0.40;;;0.40;;
58516;SDS011;44308;50.810;0.284;2024-01-11T07:51:59;0.30;;;0.30;;
58516;SDS011;44308;50.810;0.284;2024-01-11T07:54:25;0.30;;;0.30;;
58516;SDS011;44308;50.810;0.284;2024-01-11T07:56:54;0.25;;;0.25;;
58516;SDS011;44308;50.810;0.284;2024-01-11T07:59:20;0.40;;;0.40;;
58516;SDS011;44308;50.810;0.284;2024-01-11T08:01:46;0.32;;;0.32;;
58516;SDS011;44308;50.810;0.284;2024-01-11T08:04:13;0.30;;;0.30;;
58516;SDS011;44308;50.810;0.284;2024-01-11T08:06:39;0.30;;;0.30;;
58516;SDS011;44308;50.810;0.284;2024-01-11T08:09:05;0.25;;;0.25;;
58516;SDS011;44308;50.810;0.284;2024-01-11T08:11:35;0.30;;;0.30;;
58516;SDS011;44308;50.810;0.284;2024-01-11T08:14:01;0.30;;;0.30;;
58516;SDS011;44308;50.810;0.284;2024-01-11T08:16:27;0.38;;;0.38;;
58516;SDS011;44308;50.810;0.284;2024-01-11T08:18:53;0.30;;;0.30;;
58516;SDS011;44308;50.810;0.284;2024-01-11T08:21:19;0.30;;;0.30;;
58516;SDS011;44308;50.810;0.284;2024-01-11T08:23:45;0.38;;;0.38;;
58516;SDS011;44308;50.810;0.284;2024-01-11T08:26:14;0.30;;;0.30;;
58516;SDS011;44308;50.810;0.284;2024-01-11T08:28:41;0.30;;;0.30;;
58516;SDS011;44308;50.810;0.284;2024-01-11T08:31:07;0.30;;;0.30;;
58516;SDS011;44308;50.810;0.284;2024-01-11T08:33:34;0.30;;;0.30;;
58516;SDS011;44308;50.810;0.284;2024-01-11T08:36:02;0.40;;;0.40;;
58516;SDS011;44308;50.810;0.284;2024-01-11T08:38:29;0.30;;;0.30;;
58516;SDS011;44308;50.810;0.284;2024-01-11T08:40:55;0.30;;;0.30;;
58516;SDS011;44308;50.810;0.284;2024-01-11T08:43:21;0.38;;;0.38;;
58516;SDS011;44308;50.810;0.284;2024-01-11T08:45:47;0.20;;;0.20;;
58516;SDS011;44308;50.810;0.284;2024-01-11T08:48:13;0.30;;;0.30;;
58516;SDS011;44308;50.810;0.284;2024-01-11T08:50:40;0.30;;;0.30;;
58516;SDS011;44308;50.810;0.284;2024-01-11T08:53:06;0.20;;;0.20;;
58516;SDS011;44308;50.810;0.284;2024-01-11T08:55:32;0.30;;;0.30;;
58516;SDS011;44308;50.810;0.284;2024-01-11T08:57:59;0.30;;;0.30;;
58516;SDS011;44308;50.810;0.284;2024-01-11T09:00:26;0.30;;;0.30;;
58516;SDS011;44308;50.810;0.284;2024-01-11T09:02:52;0.30;;;0.30;;
58516;SDS011;44308;50.810;0.284;2024-01-11T09:05:18;0.30;;;0.30;;
58516;SDS011;44308;50.810;0.284;2024-01-11T09:07:44;0.30;;;0.30;;
58516;SDS011;44308;50.810;0.284;2024-01-11T09:10:10;0.30;;;0.30;;
58516;SDS011;44308;50.810;0.284;2024-01-11T09:12:40;0.20;;;0.20;;
58516;SDS011;44308;50.810;0.284;2024-01-11T09:15:06;0.30;;;0.30;;
58516;SDS011;44308;50.810;0.284;2024-01-11T09:17:32;0.28;;;0.28;;
58516;SDS011;44308;50.810;0.284;2024-01-11T09:19:58;0.30;;;0.30;;
58516;SDS011;44308;50.810;0.284;2024-01-11T09:22:24;0.40;;;0.40;;
58516;SDS011;44308;50.810;0.284;2024-01-11T09:24:51;0.30;;;0.30;;
58516;SDS011;44308;50.810;0.284;2024-01-11T09:27:17;0.30;;;0.30;;
58516;SDS011;44308;50.810;0.284;2024-01-11T09:29:43;0.20;;;0.20;;
58516;SDS011;44308;50.810;0.284;2024-01-11T09:32:09;0.30;;;0.30;;
58516;SDS011;44308;50.810;0.284;2024-01-11T09:34:35;0.30;;;0.30;;
58516;SDS011;44308;50.810;0.284;2024-01-11T09:37:02;0.25;;;0.25;;
58516;SDS011;44308;50.810;0.284;2024-01-11T09:39:28;0.30;;;0.30;;
58516;SDS011;44308;50.810;0.284;2024-01-11T09:41:58;0.20;;;0.20;;
58516;SDS011;44308;50.810;0.284;2024-01-11T09:44:25;0.20;;;0.20;;
58516;SDS011;44308;50.810;0.284;2024-01-11T09:46:54;0.20;;;0.20;;
58516;SDS011;44308;50.810;0.284;2024-01-11T09:49:21;0.20;;;0.20;;
58516;SDS011;44308;50.810;0.284;2024-01-11T09:51:48;0.20;;;0.20;;
58516;SDS011;44308;50.810;0.284;2024-01-11T09:54:14;0.28;;;0.28;;
58516;SDS011;44308;50.810;0.284;2024-01-11T09:56:41;0.25;;;0.25;;
58516;SDS011;44308;50.810;0.284;2024-01-11T09:59:08;0.10;;;0.10;;
58516;SDS011;44308;50.810;0.284;2024-01-11T10:01:36;0.17;;;0.17;;
58516;SDS011;44308;50.810;0.284;2024-01-11T10:04:02;0.10;;;0.10;;
58516;SDS011;44308;50.810;0.284;2024-01-11T10:06:31;0.17;;;0.17;;
58516;SDS011;44308;50.810;0.284;2024-01-11T10:08:58;0.10;;;0.10;;
58516;SDS011;44308;50.810;0.284;2024-01-11T10:11:24;0.20;;;0.20;;
58516;SDS011;44308;50.810;0.284;2024-01-11T10:13:55;0.10;;;0.10;;
58516;SDS011;44308;50.810;0.284;2024-01-11T10:16:22;0.20;;;0.20;;
58516;SDS011;44308;50.810;0.284;2024-01-11T10:18:49;0.15;;;0.15;;
58516;SDS011;44308;50.810;0.284;2024-01-11T10:21:15;0.10;;;0.10;;
58516;SDS011;44308;50.810;0.284;2024-01-11T10:23:41;0.10;;;0.10;;
58516;SDS011;44308;50.810;0.284;2024-01-11T10:26:07;0.10;;;0.10;;
58516;SDS011;44308;50.810;0.284;2024-01-11T10:28:33;0.10;;;0.10;;
58516;SDS011;44308;50.810;0.284;2024-01-11T10:31:03;0.10;;;0.10;;
58516;SDS011;44308;50.810;0.284;2024-01-11T10:33:33;0.10;;;0.10;;
58516;SDS011;44308;50.810;0.284;2024-01-11T10:35:59;0.10;;;0.10;;
58516;SDS011;44308;50.810;0.284;2024-01-11T10:38:26;0.10;;;0.10;;
58516;SDS011;44308;50.810;0.284;2024-01-11T10:40:53;0.10;;;0.10;;
58516;SDS011;44308;50.810;0.284;2024-01-11T10:43:21;0.08;;;0.08;;
58516;SDS011;44308;50.810;0.284;2024-01-11T10:45:51;0.10;;;0.10;;
58516;SDS011;44308;50.810;0.284;2024-01-11T10:48:19;0.10;;;0.10;;
58516;SDS011;44308;50.810;0.284;2024-01-11T10:50:49;0.10;;;0.10;;
58516;SDS011;44308;50.810;0.284;2024-01-11T10:55:42;0.10;;;0.10;;
58516;SDS011;44308;50.810;0.284;2024-01-11T10:58:09;0.20;;;0.20;;
58516;SDS011;44308;50.810;0.284;2024-01-11T11:00:36;0.10;;;0.10;;
58516;SDS011;44308;50.810;0.284;2024-01-11T11:03:03;0.10;;;0.10;;
58516;SDS011;44308;50.810;0.284;2024-01-11T11:05:36;0.10;;;0.10;;
58516;SDS011;44308;50.810;0.284;2024-01-11T11:08:03;0.10;;;0.10;;
58516;SDS011;44308;50.810;0.284;2024-01-11T11:10:31;0.20;;;0.20;;
58516;SDS011;44308;50.810;0.284;2024-01-11T11:12:58;0.13;;;0.13;;
58516;SDS011;44308;50.810;0.284;2024-01-11T11:15:28;0.10;;;0.10;;
58516;SDS011;44308;50.810;0.284;2024-01-11T11:17:54;0.10;;;0.10;;
58516;SDS011;44308;50.810;0.284;2024-01-11T11:20:20;0.10;;;0.10;;
58516;SDS011;44308;50.810;0.284;2024-01-11T11:25:31;0.10;;;0.10;;
58516;SDS011;44308;50.810;0.284;2024-01-11T11:27:58;0.10;;;0.10;;
58516;SDS011;44308;50.810;0.284;2024-01-11T11:30:48;0.20;;;0.20;;
58516;SDS011;44308;50.810;0.284;2024-01-11T11:33:18;0.10;;;0.10;;
58516;SDS011;44308;50.810;0.284;2024-01-11T11:35:48;0.10;;;0.10;;
58516;SDS011;44308;50.810;0.284;2024-01-11T11:38:17;0.10;;;0.10;;
58516;SDS011;44308;50.810;0.284;2024-01-11T11:40:51;0.10;;;0.10;;
58516;SDS011;44308;50.810;0.284;2024-01-11T11:43:17;0.10;;;0.10;;
58516;SDS011;44308;50.810;0.284;2024-01-11T11:45:47;0.10;;;0.10;;
58516;SDS011;44308;50.810;0.284;2024-01-11T11:53:40;0.10;;;0.10;;
58516;SDS011;44308;50.810;0.284;2024-01-11T11:56:07;0.10;;;0.10;;
58516;SDS011;44308;50.810;0.284;2024-01-11T11:58:37;0.10;;;0.10;;
58516;SDS011;44308;50.810;0.284;2024-01-11T12:01:08;0.10;;;0.10;;
58516;SDS011;44308;50.810;0.284;2024-01-11T12:03:34;0.17;;;0.17;;
58516;SDS011;44308;50.810;0.284;2024-01-11T12:06:02;0.10;;;0.10;;
58516;SDS011;44308;50.810;0.284;2024-01-11T12:08:28;0.10;;;0.10;;
58516;SDS011;44308;50.810;0.284;2024-01-11T12:10:55;0.13;;;0.13;;
58516;SDS011;44308;50.810;0.284;2024-01-11T12:13:21;0.10;;;0.10;;
58516;SDS011;44308;50.810;0.284;2024-01-11T12:15:47;0.10;;;0.10;;
58516;SDS011;44308;50.810;0.284;2024-01-11T12:18:13;0.17;;;0.17;;
58516;SDS011;44308;50.810;0.284;2024-01-11T12:20:39;0.10;;;0.10;;
58516;SDS011;44308;50.810;0.284;2024-01-11T12:23:08;0.10;;;0.10;;
58516;SDS011;44308;50.810;0.284;2024-01-11T12:25:35;0.10;;;0.10;;
58516;SDS011;44308;50.810;0.284;2024-01-11T12:28:01;0.10;;;0.10;;
58516;SDS011;44308;50.810;0.284;2024-01-11T12:30:27;0.10;;;0.10;;
58516;SDS011;44308;50.810;0.284;2024-01-11T12:32:55;0.20;;;0.20;;
58516;SDS011;44308;50.810;0.284;2024-01-11T12:35:25;0.10;;;0.10;;
58516;SDS011;44308;50.810;0.284;2024-01-11T12:40:20;0.10;;;0.10;;
58516;SDS011;44308;50.810;0.284;2024-01-11T12:42:46;0.10;;;0.10;;
58516;SDS011;44308;50.810;0.284;2024-01-11T12:45:14;0.20;;;0.20;;
58516;SDS011;44308;50.810;0.284;2024-01-11T12:47:41;0.20;;;0.20;;
58516;SDS011;44308;50.810;0.284;2024-01-11T12:50:07;0.10;;;0.10;;
58516;SDS011;44308;50.810;0.284;2024-01-11T12:52:33;0.10;;;0.10;;
58516;SDS011;44308;50.810;0.284;2024-01-11T12:54:59;0.10;;;0.10;;
58516;SDS011;44308;50.810;0.284;2024-01-11T12:57:25;0.10;;;0.10;;
58516;SDS011;44308;50.810;0.284;2024-01-11T12:59:51;0.10;;;0.10;;
58516;SDS011;44308;50.810;0.284;2024-01-11T13:02:18;0.10;;;0.10;;
58516;SDS011;44308;50.810;0.284;2024-01-11T13:04:45;0.10;;;0.10;;
58516;SDS011;44308;50.810;0.284;2024-01-11T13:07:11;0.10;;;0.10;;
58516;SDS011;44308;50.810;0.284;2024-01-11T13:09:40;0.10;;;0.10;;
58516;SDS011;44308;50.810;0.284;2024-01-11T13:12:06;0.10;;;0.10;;
58516;SDS011;44308;50.810;0.284;2024-01-11T13:14:32;0.10;;;0.10;;
58516;SDS011;44308;50.810;0.284;2024-01-11T13:16:59;0.10;;;0.10;;
58516;SDS011;44308;50.810;0.284;2024-01-11T13:19:25;0.10;;;0.10;;
58516;SDS011;44308;50.810;0.284;2024-01-11T13:21:51;0.10;;;0.10;;
58516;SDS011;44308;50.810;0.284;2024-01-11T13:24:17;0.13;;;0.13;;
58516;SDS011;44308;50.810;0.284;2024-01-11T13:26:43;0.20;;;0.20;;
58516;SDS011;44308;50.810;0.284;2024-01-11T13:29:10;0.10;;;0.10;;
58516;SDS011;44308;50.810;0.284;2024-01-11T13:31:36;0.10;;;0.10;;
58516;SDS011;44308;50.810;0.284;2024-01-11T13:34:02;0.10;;;0.10;;
58516;SDS011;44308;50.810;0.284;2024-01-11T13:36:28;0.10;;;0.10;;
58516;SDS011;44308;50.810;0.284;2024-01-11T13:38:54;0.10;;;0.10;;
58516;SDS011;44308;50.810;0.284;2024-01-11T13:41:24;0.10;;;0.10;;
58516;SDS011;44308;50.810;0.284;2024-01-11T13:43:50;0.10;;;0.10;;
58516;SDS011;44308;50.810;0.284;2024-01-11T13:46:16;0.10;;;0.10;;
58516;SDS011;44308;50.810;0.284;2024-01-11T13:48:44;0.10;;;0.10;;
58516;SDS011;44308;50.810;0.284;2024-01-11T13:51:12;0.15;;;0.15;;
58516;SDS011;44308;50.810;0.284;2024-01-11T13:53:39;0.10;;;0.10;;
58516;SDS011;44308;50.810;0.284;2024-01-11T13:56:05;0.20;;;0.20;;
58516;SDS011;44308;50.810;0.284;2024-01-11T13:58:31;0.10;;;0.10;;
58516;SDS011;44308;50.810;0.284;2024-01-11T14:00:57;0.10;;;0.10;;
58516;SDS011;44308;50.810;0.284;2024-01-11T14:03:24;0.10;;;0.10;;
58516;SDS011;44308;50.810;0.284;2024-01-11T14:05:50;0.15;;;0.15;;
58516;SDS011;44308;50.810;0.284;2024-01-11T14:08:16;0.10;;;0.10;;
58516;SDS011;44308;50.810;0.284;2024-01-11T14:10:42;0.10;;;0.10;;
58516;SDS011;44308;50.810;0.284;2024-01-11T14:13:09;0.20;;;0.20;;
58516;SDS011;44308;50.810;0.284;2024-01-11T14:15:35;0.10;;;0.10;;
58516;SDS011;44308;50.810;0.284;2024-01-11T14:18:02;0.10;;;0.10;;
58516;SDS011;44308;50.810;0.284;2024-01-11T14:20:28;0.13;;;0.13;;
58516;SDS011;44308;50.810;0.284;2024-01-11T14:22:55;0.10;;;0.10;;
58516;SDS011;44308;50.810;0.284;2024-01-11T14:25:23;0.10;;;0.10;;
58516;SDS011;44308;50.810;0.284;2024-01-11T14:27:54;0.20;;;0.20;;
58516;SDS011;44308;50.810;0.284;2024-01-11T14:30:21;0.15;;;0.15;;
58516;SDS011;44308;50.810;0.284;2024-01-11T14:32:51;0.10;;;0.10;;
58516;SDS011;44308;50.810;0.284;2024-01-11T14:35:17;0.10;;;0.10;;
58516;SDS011;44308;50.810;0.284;2024-01-11T14:37:46;0.10;;;0.10;;
58516;SDS011;44308;50.810;0.284;2024-01-11T14:40:12;0.20;;;0.20;;
58516;SDS011;44308;50.810;0.284;2024-01-11T14:42:39;0.10;;;0.10;;
58516;SDS011;44308;50.810;0.284;2024-01-11T14:45:05;0.10;;;0.10;;
58516;SDS011;44308;50.810;0.284;2024-01-11T14:47:33;0.20;;;0.20;;
58516;SDS011;44308;50.810;0.284;2024-01-11T14:49:59;0.20;;;0.20;;
58516;SDS011;44308;50.810;0.284;2024-01-11T14:52:26;0.10;;;0.10;;
58516;SDS011;44308;50.810;0.284;2024-01-11T14:54:52;0.10;;;0.10;;
58516;SDS011;44308;50.810;0.284;2024-01-11T14:57:18;0.20;;;0.20;;